Time;durP1;ratioP1;P1;durP2;ratioP2;P2;SDS_P1;SDS_P2;PMS_P1;PMS_P2;Temp;Humidity;BMP_temperature;BMP_pressure;BME280_temperature;BME280_humidity;BME280_pressure;Samples;Min_cycle;Max_cycle;Signal;HPM_P1;HPM_P2
2022/04/04 00:02:32;;;;;;;12.45;6.00;;;9.20;52.20;;;;;;6002430;29;20536;-71
2022/04/04 00:05:33;;;;;;;12.27;5.85;;;9.10;52.10;;;;;;6016923;29;20065;-72
2022/04/04 00:08:34;;;;;;;10.05;5.93;;;9.10;52.30;;;;;;6016603;29;20038;-71
2022/04/04 00:11:35;;;;;;;12.73;5.63;;;9.10;52.40;;;;;;6020719;29;20384;-71
2022/04/04 00:14:36;;;;;;;15.23;5.75;;;9.00;52.30;;;;;;6002967;29;20042;-71
2022/04/04 00:17:37;;;;;;;10.40;5.75;;;9.00;52.40;;;;;;6003910;29;20077;-71
2022/04/04 00:20:39;;;;;;;10.10;5.90;;;9.00;52.50;;;;;;6004869;29;20060;-71
2022/04/04 00:23:40;;;;;;;11.75;5.57;;;9.00;52.40;;;;;;6005861;29;20041;-71
2022/04/04 00:26:41;;;;;;;19.48;6.53;;;9.00;52.40;;;;;;6006661;29;20107;-71
2022/04/04 00:29:42;;;;;;;9.77;5.72;;;9.00;52.30;;;;;;5999781;29;21576;-70
2022/04/04 00:32:43;;;;;;;10.90;5.63;;;8.90;52.50;;;;;;5990835;29;20045;-72
2022/04/04 00:35:44;;;;;;;10.98;5.68;;;8.90;52.50;;;;;;5991993;29;20050;-71
2022/04/04 00:38:45;;;;;;;12.65;6.30;;;8.80;52.40;;;;;;6020670;29;20052;-70
2022/04/04 00:41:47;;;;;;;10.18;5.80;;;8.80;52.70;;;;;;6003704;29;20046;-71
2022/04/04 00:44:51;;;;;;;12.63;6.18;;;8.70;52.70;;;;;;6018665;29;20061;-70
2022/04/04 00:47:52;;;;;;;15.02;6.43;;;8.70;52.90;;;;;;6000885;29;20672;-70
2022/04/04 00:50:54;;;;;;;12.85;5.90;;;8.70;52.90;;;;;;6020705;29;20038;-71
2022/04/04 00:53:54;;;;;;;9.82;5.53;;;8.70;52.90;;;;;;6018792;29;20508;-71
2022/04/04 00:56:56;;;;;;;14.52;6.85;;;8.70;52.90;;;;;;6018210;29;20052;-71
2022/04/04 00:59:57;;;;;;;10.45;5.63;;;8.60;52.90;;;;;;6004740;29;20501;-70
2022/04/04 01:02:58;;;;;;;14.00;6.75;;;8.60;52.90;;;;;;6018641;29;20042;-71
2022/04/04 01:05:59;;;;;;;10.13;5.75;;;8.60;52.90;;;;;;6017834;29;20091;-71
2022/04/04 01:09:02;;;;;;;10.95;5.78;;;8.60;53.00;;;;;;6021058;29;20061;-71
2022/04/04 01:12:13;;;;;;;11.40;6.22;;;8.50;53.10;;;;;;6003935;29;20037;-70
2022/04/04 01:15:13;;;;;;;11.95;6.32;;;8.40;53.10;;;;;;6015882;29;20046;-71
2022/04/04 01:18:15;;;;;;;12.10;6.43;;;8.40;53.30;;;;;;6002943;29;20080;-70
2022/04/04 01:21:19;;;;;;;10.38;5.80;;;8.40;53.40;;;;;;6003491;29;20137;-71
2022/04/04 01:24:21;;;;;;;13.88;6.15;;;8.40;53.50;;;;;;5985217;29;20037;-72
2022/04/04 01:27:22;;;;;;;14.88;6.32;;;8.30;53.70;;;;;;6003668;29;20038;-70
2022/04/04 01:30:23;;;;;;;14.82;7.63;;;8.30;53.70;;;;;;5986158;29;20076;-70
2022/04/04 01:33:25;;;;;;;15.10;6.40;;;8.30;53.80;;;;;;6002153;29;20026;-70
2022/04/04 01:36:25;;;;;;;8.13;5.07;;;8.30;54.00;;;;;;5986862;29;20065;-72
2022/04/04 01:39:27;;;;;;;12.98;6.25;;;8.30;54.10;;;;;;6003083;29;20043;-70
2022/04/04 01:42:27;;;;;;;14.05;6.53;;;8.20;54.30;;;;;;6001684;29;20050;-70
2022/04/04 01:48:49;;;;;;;21.95;8.20;;;8.20;54.50;;;;;;6017469;29;20098;-70
2022/04/04 01:51:50;;;;;;;15.13;5.68;;;8.20;54.70;;;;;;6012228;29;20041;-70
2022/04/04 01:54:51;;;;;;;13.52;6.43;;;8.10;54.70;;;;;;6002390;29;20498;-71
2022/04/04 01:57:53;;;;;;;10.48;5.70;;;8.10;54.90;;;;;;6001330;29;20064;-71
2022/04/04 02:00:56;;;;;;;11.15;5.80;;;8.00;55.00;;;;;;6020837;29;20535;-70
2022/04/04 02:03:57;;;;;;;13.75;6.38;;;8.00;55.10;;;;;;6020110;29;20037;-70
2022/04/04 02:06:59;;;;;;;12.00;7.38;;;8.00;55.20;;;;;;6002596;29;20033;-70
2022/04/04 02:10:01;;;;;;;14.98;6.13;;;7.90;55.30;;;;;;6015255;29;20065;-70
2022/04/04 02:13:02;;;;;;;10.15;5.40;;;7.90;55.30;;;;;;6016641;29;20046;-71
2022/04/04 02:16:04;;;;;;;14.80;6.32;;;7.90;55.40;;;;;;6022205;29;20459;-71
2022/04/04 02:19:05;;;;;;;11.52;5.55;;;7.80;55.40;;;;;;6017505;29;20041;-71
2022/04/04 02:22:06;;;;;;;11.80;5.75;;;7.80;55.40;;;;;;6002591;29;20101;-71
2022/04/04 02:25:07;;;;;;;9.95;6.28;;;7.80;55.50;;;;;;6017739;29;20101;-72
2022/04/04 02:28:08;;;;;;;13.07;6.32;;;7.80;55.60;;;;;;6017112;29;20190;-71
2022/04/04 02:31:09;;;;;;;12.80;5.72;;;7.70;55.60;;;;;;5986953;29;20046;-70
2022/04/04 02:34:10;;;;;;;11.10;5.78;;;7.70;55.70;;;;;;6000443;29;20045;-71
2022/04/04 02:37:12;;;;;;;11.07;5.68;;;7.70;55.70;;;;;;5999991;29;20033;-70
2022/04/04 02:40:13;;;;;;;12.25;6.30;;;7.60;55.70;;;;;;5986750;29;20038;-71
2022/04/04 02:43:15;;;;;;;13.32;6.22;;;7.60;55.80;;;;;;6002221;29;20112;-69
2022/04/04 02:46:17;;;;;;;17.77;7.38;;;7.50;55.90;;;;;;6013004;29;20048;-71
2022/04/04 02:49:17;;;;;;;15.65;6.93;;;7.50;55.80;;;;;;6004578;29;20053;-70
2022/04/04 02:52:18;;;;;;;13.48;6.35;;;7.50;56.00;;;;;;5998784;29;20073;-72
2022/04/04 02:58:40;;;;;;;16.13;7.47;;;7.40;56.20;;;;;;5997048;29;20546;-70
2022/04/04 03:01:48;;;;;;;14.25;5.68;;;7.30;56.30;;;;;;6018389;29;20074;-71
2022/04/04 03:04:50;;;;;;;14.60;6.20;;;7.30;56.40;;;;;;6002514;29;20042;-70
2022/04/04 03:07:52;;;;;;;12.77;6.13;;;7.30;56.50;;;;;;5987351;29;20045;-70
2022/04/04 03:10:53;;;;;;;15.25;7.00;;;7.30;56.60;;;;;;5987404;29;20049;-70
2022/04/04 03:13:53;;;;;;;18.17;6.18;;;7.10;56.50;;;;;;5985288;29;20067;-70
2022/04/04 03:16:54;;;;;;;11.35;6.25;;;7.30;56.70;;;;;;5998912;29;20045;-72
2022/04/04 03:19:55;;;;;;;10.80;5.88;;;7.30;56.80;;;;;;6000606;29;20037;-69
2022/04/04 03:22:57;;;;;;;9.65;5.82;;;7.30;56.80;;;;;;6016849;29;20038;-70
2022/04/04 03:25:58;;;;;;;20.73;6.05;;;7.30;56.90;;;;;;5998077;29;20133;-70
2022/04/04 03:28:59;;;;;;;18.15;6.55;;;7.30;56.90;;;;;;6000508;29;20046;-70
2022/04/04 03:32:00;;;;;;;11.68;6.05;;;7.30;56.90;;;;;;6013921;29;20045;-71
2022/04/04 03:35:04;;;;;;;12.43;6.68;;;7.20;57.00;;;;;;5986150;29;20044;-69
2022/04/04 03:38:07;;;;;;;13.65;6.40;;;7.20;57.00;;;;;;5997691;29;20376;-69
2022/04/04 03:41:09;;;;;;;13.80;6.32;;;7.20;57.00;;;;;;5998344;29;20091;-72
2022/04/04 03:44:11;;;;;;;11.00;6.00;;;7.20;57.00;;;;;;6000348;29;20065;-70
2022/04/04 03:47:12;;;;;;;11.45;5.88;;;7.20;57.00;;;;;;6004636;29;20046;-70
2022/04/04 03:50:14;;;;;;;17.38;5.75;;;7.10;57.00;;;;;;5987989;29;20052;-70
2022/04/04 03:53:16;;;;;;;13.20;6.68;;;7.10;57.10;;;;;;6004999;29;20041;-70
2022/04/04 03:56:16;;;;;;;10.95;6.22;;;7.10;57.10;;;;;;6003844;29;20075;-70
2022/04/04 03:59:18;;;;;;;12.15;6.13;;;7.10;57.20;;;;;;6005834;29;20038;-70
2022/04/04 04:02:19;;;;;;;17.52;5.57;;;7.10;57.20;;;;;;6023125;29;20030;-70
2022/04/04 04:05:20;;;;;;;10.35;6.43;;;7.00;57.20;;;;;;6006210;29;20060;-69
2022/04/04 04:08:21;;;;;;;12.20;6.25;;;7.00;57.20;;;;;;6001881;29;20047;-69
2022/04/04 04:11:22;;;;;;;15.43;6.75;;;7.00;57.20;;;;;;6018954;29;20204;-70
2022/04/04 04:14:25;;;;;;;13.98;6.28;;;7.00;57.20;;;;;;6008886;29;20081;-72
2022/04/04 04:17:25;;;;;;;17.42;6.70;;;7.00;57.20;;;;;;6005515;29;20052;-69
2022/04/04 04:20:31;;;;;;;11.30;6.55;;;6.90;57.20;;;;;;6003489;29;20053;-70
2022/04/04 04:23:34;;;;;;;11.95;6.47;;;6.90;57.30;;;;;;6003627;29;20062;-70
2022/04/04 04:26:35;;;;;;;13.88;7.00;;;6.90;57.30;;;;;;6019372;29;20048;-70
2022/04/04 04:29:36;;;;;;;12.18;5.30;;;6.90;57.40;;;;;;6022329;29;20041;-69
2022/04/04 04:32:37;;;;;;;13.75;6.22;;;6.80;57.50;;;;;;6006810;29;20042;-72
2022/04/04 04:35:38;;;;;;;15.10;6.65;;;6.80;57.40;;;;;;6020543;29;20041;-70
2022/04/04 04:38:39;;;;;;;11.60;6.07;;;6.80;57.40;;;;;;6022195;29;20046;-70
2022/04/04 04:41:40;;;;;;;10.43;5.70;;;6.80;57.50;;;;;;5998282;29;20113;-70
2022/04/04 04:44:41;;;;;;;13.50;6.00;;;6.80;57.50;;;;;;6003690;29;20525;-70
2022/04/04 04:47:42;;;;;;;14.50;6.35;;;6.80;57.50;;;;;;6007477;29;20042;-70
2022/04/04 04:50:43;;;;;;;14.80;6.82;;;6.80;57.60;;;;;;5995591;29;20484;-69
2022/04/04 04:53:44;;;;;;;16.70;7.00;;;6.80;57.60;;;;;;6020080;29;20042;-69
2022/04/04 04:56:46;;;;;;;15.40;6.68;;;6.90;57.70;;;;;;6017239;29;20074;-70
2022/04/04 04:59:47;;;;;;;12.98;6.65;;;6.90;57.70;;;;;;6003401;29;20456;-70
2022/04/04 05:03:24;;;;;;;10.95;6.53;;;6.90;57.60;;;;;;6021161;29;20143;-71
2022/04/04 05:06:10;;;;;;;13.57;6.82;;;6.90;57.50;;;;;;6016473;29;20042;-71
2022/04/04 05:09:11;;;;;;;10.88;5.63;;;6.80;57.50;;;;;;6021456;29;20494;-72
2022/04/04 05:12:11;;;;;;;13.77;6.80;;;6.90;57.50;;;;;;6003700;29;20041;-71
2022/04/04 05:15:13;;;;;;;12.50;6.70;;;6.90;57.50;;;;;;6005666;29;20053;-70
2022/04/04 05:18:14;;;;;;;12.48;6.47;;;6.90;57.50;;;;;;6018098;29;20421;-69
2022/04/04 05:21:15;;;;;;;12.68;7.13;;;6.80;57.40;;;;;;6019659;29;20029;-72
2022/04/04 05:24:17;;;;;;;12.60;6.55;;;6.80;57.50;;;;;;6000752;29;20035;-70
2022/04/04 05:27:18;;;;;;;13.90;6.78;;;6.80;57.50;;;;;;6003850;29;20048;-70
2022/04/04 05:30:18;;;;;;;12.63;5.88;;;6.80;57.50;;;;;;6020365;29;20033;-71
2022/04/04 05:33:19;;;;;;;13.30;6.57;;;6.80;57.50;;;;;;6004153;29;20149;-71
2022/04/04 05:36:20;;;;;;;12.50;6.43;;;6.80;57.50;;;;;;6020746;29;20181;-70
2022/04/04 05:39:21;;;;;;;14.05;7.07;;;6.80;58.20;;;;;;6017353;29;20052;-71
2022/04/04 05:42:22;;;;;;;11.68;6.63;;;6.80;57.60;;;;;;6001236;29;20408;-71
2022/04/04 05:45:24;;;;;;;16.85;6.78;;;6.80;57.60;;;;;;6016546;29;20117;-70
2022/04/04 05:48:30;;;;;;;21.52;7.47;;;6.80;57.60;;;;;;5987949;29;20442;-70
2022/04/04 05:51:33;;;;;;;18.27;7.55;;;6.80;57.60;;;;;;6018029;29;20046;-72
2022/04/04 05:54:34;;;;;;;12.27;7.15;;;6.90;57.70;;;;;;6004745;29;20117;-71
2022/04/04 05:57:38;;;;;;;15.50;7.25;;;6.90;57.60;;;;;;5999815;29;20049;-71
2022/04/04 06:00:39;;;;;;;18.15;9.30;;;6.80;57.60;;;;;;6013650;29;20117;-70
2022/04/04 06:03:40;;;;;;;14.93;7.35;;;6.80;57.50;;;;;;5985652;29;20052;-71
2022/04/04 06:06:41;;;;;;;12.77;6.75;;;6.80;57.60;;;;;;6001007;29;20037;-71
2022/04/04 06:09:41;;;;;;;16.40;7.38;;;6.90;57.60;;;;;;6018591;29;20396;-71
2022/04/04 06:12:46;;;;;;;14.00;7.55;;;6.90;57.60;;;;;;6001530;29;20097;-70
2022/04/04 06:15:47;;;;;;;18.10;7.43;;;6.90;57.50;;;;;;6013154;29;20070;-72
2022/04/04 06:18:50;;;;;;;18.88;7.82;;;6.90;57.50;;;;;;6001253;29;20117;-71
2022/04/04 06:21:51;;;;;;;14.98;7.43;;;7.00;57.60;;;;;;6000431;29;20042;-70
2022/04/04 06:24:52;;;;;;;13.70;5.90;;;7.10;57.50;;;;;;5998407;29;20330;-70
2022/04/04 06:27:53;;;;;;;16.88;8.02;;;7.10;57.40;;;;;;5984508;29;20489;-72
2022/04/04 06:30:54;;;;;;;24.17;7.50;;;7.20;57.30;;;;;;5999342;29;20042;-71
2022/04/04 06:33:55;;;;;;;21.23;8.70;;;7.20;57.30;;;;;;6017054;29;20041;-71
2022/04/04 06:36:56;;;;;;;21.85;8.73;;;7.20;57.20;;;;;;6015284;29;20046;-71
2022/04/04 06:39:57;;;;;;;14.98;7.22;;;7.20;57.10;;;;;;6016188;29;20146;-71
2022/04/04 06:42:59;;;;;;;17.50;7.90;;;7.10;57.00;;;;;;5979578;29;20045;-70
2022/04/04 06:46:00;;;;;;;15.00;7.25;;;7.10;57.10;;;;;;6011769;29;20038;-71
2022/04/04 06:49:00;;;;;;;17.77;7.97;;;7.10;57.20;;;;;;6018146;29;20052;-70
2022/04/04 06:52:02;;;;;;;18.90;8.52;;;7.10;57.10;;;;;;6016665;29;20045;-71
2022/04/04 06:55:05;;;;;;;17.90;7.82;;;7.10;57.20;;;;;;6001275;29;20375;-73
2022/04/04 06:58:06;;;;;;;18.83;7.82;;;7.10;57.20;;;;;;6015891;29;20244;-70
2022/04/04 07:01:07;;;;;;;32.83;9.35;;;7.20;57.10;;;;;;6016988;29;20329;-72
2022/04/04 07:04:09;;;;;;;18.58;8.65;;;7.20;57.00;;;;;;6001370;29;20082;-71
2022/04/04 07:07:10;;;;;;;16.15;7.63;;;7.30;56.90;;;;;;6009513;29;20045;-71
2022/04/04 07:10:11;;;;;;;13.50;7.35;;;7.30;56.80;;;;;;5995558;29;20045;-71
2022/04/04 07:13:12;;;;;;;21.08;9.25;;;7.30;56.60;;;;;;5993353;29;20102;-71
2022/04/04 07:16:13;;;;;;;15.68;9.00;;;7.30;56.50;;;;;;6015562;29;20109;-72
2022/04/04 07:19:16;;;;;;;21.13;8.55;;;7.40;56.50;;;;;;6015870;29;20108;-71
2022/04/04 07:22:17;;;;;;;16.55;7.70;;;7.40;56.50;;;;;;6014534;29;20052;-72
2022/04/04 07:25:18;;;;;;;15.65;7.55;;;7.40;56.50;;;;;;6005680;29;20058;-71
2022/04/04 07:28:21;;;;;;;18.65;7.43;;;7.50;56.50;;;;;;6014776;29;20049;-71
2022/04/04 07:31:22;;;;;;;18.27;8.23;;;7.50;56.40;;;;;;6013975;29;20057;-71
2022/04/04 07:34:23;;;;;;;17.98;8.48;;;7.60;56.40;;;;;;5985021;29;20041;-72
2022/04/04 07:37:24;;;;;;;20.35;8.85;;;7.70;56.40;;;;;;5998549;29;20476;-71
2022/04/04 07:40:26;;;;;;;20.02;8.23;;;7.70;56.30;;;;;;6016167;29;20034;-72
2022/04/04 07:43:27;;;;;;;18.40;8.27;;;7.70;56.20;;;;;;6000877;29;20126;-72
2022/04/04 07:46:28;;;;;;;24.60;8.52;;;7.70;56.10;;;;;;5998225;29;20458;-71
2022/04/04 07:49:29;;;;;;;22.25;9.75;;;7.80;56.00;;;;;;5998742;29;20034;-71
2022/04/04 07:52:30;;;;;;;20.55;9.45;;;7.90;56.10;;;;;;6014725;29;20506;-71
2022/04/04 07:55:31;;;;;;;28.25;9.90;;;7.90;56.00;;;;;;6018323;29;20435;-71
2022/04/04 07:58:32;;;;;;;16.00;7.88;;;8.10;55.90;;;;;;6016236;29;20046;-71
2022/04/04 08:01:34;;;;;;;23.50;9.55;;;8.20;55.60;;;;;;5985434;29;20046;-71
2022/04/04 08:04:35;;;;;;;22.02;9.45;;;8.30;55.40;;;;;;5981869;29;20079;-71
2022/04/04 08:07:37;;;;;;;23.13;8.70;;;8.30;55.20;;;;;;6000483;29;20037;-71
2022/04/04 08:10:41;;;;;;;17.33;9.18;;;8.30;55.20;;;;;;6016217;29;20140;-71
2022/04/04 08:13:44;;;;;;;20.88;8.55;;;8.40;55.20;;;;;;5999315;29;20456;-71
2022/04/04 08:16:45;;;;;;;17.92;8.38;;;8.40;55.00;;;;;;6001047;29;20064;-71
2022/04/04 08:19:46;;;;;;;17.05;8.98;;;8.50;55.60;;;;;;6000226;29;20044;-71
2022/04/04 08:22:47;;;;;;;18.90;8.13;;;8.60;54.90;;;;;;5998732;29;20162;-71
2022/04/04 08:25:48;;;;;;;17.13;8.68;;;8.70;54.50;;;;;;5982965;29;20385;-71
2022/04/04 08:28:49;;;;;;;18.52;7.95;;;8.80;54.30;;;;;;5998581;29;20417;-71
2022/04/04 08:31:50;;;;;;;16.02;8.30;;;8.90;54.10;;;;;;6020841;29;20045;-71
2022/04/04 08:34:51;;;;;;;19.70;9.80;;;8.90;54.00;;;;;;6018936;29;20045;-71
2022/04/04 08:37:52;;;;;;;20.20;9.85;;;8.90;53.90;;;;;;6020467;29;20379;-71
2022/04/04 08:40:53;;;;;;;20.52;9.32;;;9.00;54.00;;;;;;6020580;29;20504;-71
2022/04/04 08:43:58;;;;;;;17.63;8.50;;;9.10;53.90;;;;;;6023005;29;20070;-71
2022/04/04 08:47:00;;;;;;;14.10;8.02;;;9.20;53.70;;;;;;6017091;29;20122;-71
2022/04/04 08:50:02;;;;;;;15.57;8.52;;;9.20;53.50;;;;;;6022742;29;20089;-71
2022/04/04 08:53:04;;;;;;;17.05;8.77;;;9.30;53.30;;;;;;6004042;29;20045;-71
2022/04/04 08:56:06;;;;;;;16.88;7.68;;;9.40;53.20;;;;;;6006203;29;20507;-71
2022/04/04 08:59:07;;;;;;;19.23;8.82;;;9.50;53.20;;;;;;6005991;29;20376;-71
2022/04/04 09:02:12;;;;;;;15.93;8.40;;;9.60;53.10;;;;;;6020771;29;20042;-71
2022/04/04 09:05:13;;;;;;;18.65;8.75;;;9.70;52.80;;;;;;5990026;29;20460;-71
2022/04/04 09:08:14;;;;;;;20.35;7.90;;;9.80;52.30;;;;;;6003778;29;20053;-70
2022/04/04 09:11:16;;;;;;;21.55;9.32;;;9.80;52.10;;;;;;6020104;29;20050;-71
2022/04/04 09:14:21;;;;;;;20.00;9.45;;;9.90;52.20;;;;;;6020966;29;20083;-71
2022/04/04 09:17:24;;;;;;;23.00;9.55;;;10.10;52.10;;;;;;6001623;29;20053;-70
2022/04/04 09:20:25;;;;;;;16.85;8.95;;;10.20;51.90;;;;;;6002719;29;20508;-72
2022/04/04 09:23:33;;;;;;;17.05;7.88;;;10.20;51.80;;;;;;6002052;29;20049;-71
2022/04/04 09:26:44;;;;;;;18.03;7.87;;;10.40;51.60;;;;;;6001628;29;20049;-70
2022/04/04 09:29:46;;;;;;;20.35;9.63;;;10.60;51.30;;;;;;6017176;29;20042;-70
2022/04/04 09:32:49;;;;;;;17.38;8.57;;;10.80;51.10;;;;;;6006712;29;20125;-70
2022/04/04 09:35:52;;;;;;;22.73;8.85;;;11.00;50.60;;;;;;6003235;29;20045;-72
2022/04/04 09:39:08;;;;;;;20.77;9.52;;;11.20;50.60;;;;;;6020121;29;20038;-71
2022/04/04 09:42:17;;;;;;;20.60;8.85;;;11.40;50.10;;;;;;6001325;29;20038;-71
2022/04/04 09:45:18;;;;;;;;;;;11.60;49.80;;;;;;6019657;29;20040;-71
2022/04/04 09:48:19;;;;;;;15.57;8.27;;;11.80;49.60;;;;;;6019940;29;19959;-71
2022/04/04 09:51:34;;;;;;;18.60;9.57;;;12.00;49.30;;;;;;6020723;29;20042;-70
2022/04/04 09:54:42;;;;;;;19.58;8.80;;;12.20;49.00;;;;;;6019977;29;20049;-70
2022/04/04 09:57:50;;;;;;;20.80;8.93;;;12.40;48.60;;;;;;6017564;29;20046;-71
2022/04/04 10:00:51;;;;;;;21.15;9.15;;;12.40;48.20;;;;;;6002059;29;20042;-72
2022/04/04 10:03:54;;;;;;;18.42;8.38;;;12.60;48.00;;;;;;6014493;29;20030;-71
2022/04/04 10:06:56;;;;;;;19.85;8.63;;;12.70;47.60;;;;;;6004540;29;20030;-71
2022/04/04 10:09:57;;;;;;;24.35;9.65;;;13.00;47.30;;;;;;6004141;29;20053;-71
2022/04/04 10:12:59;;;;;;;18.83;9.48;;;13.20;46.90;;;;;;6018689;29;20097;-72
2022/04/04 10:16:00;;;;;;;21.77;9.60;;;13.30;46.70;;;;;;6003274;29;20046;-71
2022/04/04 10:19:01;;;;;;;23.60;10.00;;;13.40;46.30;;;;;;6016745;29;20099;-71
2022/04/04 10:22:02;;;;;;;19.27;8.25;;;13.40;46.20;;;;;;6016448;29;20069;-70
2022/04/04 10:25:07;;;;;;;18.08;9.20;;;13.40;46.20;;;;;;6018613;29;20038;-71
2022/04/04 10:28:08;;;;;;;16.67;8.30;;;13.30;46.10;;;;;;6015758;29;20034;-74
2022/04/04 10:31:27;;;;;;;21.90;10.05;;;13.20;46.00;;;;;;6002663;29;20042;-73
2022/04/04 10:34:28;;;;;;;21.48;10.18;;;13.20;46.20;;;;;;6012559;29;20459;-71
2022/04/04 10:37:30;;;;;;;20.02;9.77;;;13.20;45.80;;;;;;6005666;29;20059;-72
2022/04/04 10:40:33;;;;;;;22.17;9.65;;;13.10;45.90;;;;;;6020041;29;20383;-71
2022/04/04 10:43:38;;;;;;;17.35;9.20;;;13.10;46.00;;;;;;6019851;29;20042;-72
2022/04/04 10:46:49;;;;;;;18.17;8.70;;;13.30;45.70;;;;;;6018625;29;20033;-73
2022/04/04 10:49:51;;;;;;;18.75;9.45;;;13.50;46.10;;;;;;6002079;29;20193;-72
2022/04/04 10:52:53;;;;;;;18.20;8.85;;;13.70;45.00;;;;;;6018855;29;20031;-70
2022/04/04 10:55:54;;;;;;;17.15;8.57;;;13.80;44.60;;;;;;6020268;29;20038;-72
2022/04/04 10:59:16;;;;;;;20.38;9.18;;;13.80;44.30;;;;;;6019676;29;20048;-72
2022/04/04 11:02:18;;;;;;;22.52;9.77;;;13.80;44.20;;;;;;5987384;29;20038;-72
2022/04/04 11:08:38;;;;;;;21.67;9.20;;;14.00;43.90;;;;;;6018875;29;20049;-72
2022/04/04 11:11:44;;;;;;;19.98;8.85;;;14.10;43.60;;;;;;6016817;29;20423;-72
2022/04/04 11:14:54;;;;;;;12.73;7.88;;;14.20;43.40;;;;;;5999136;29;20177;-71
2022/04/04 11:18:00;;;;;;;16.13;7.40;;;14.30;42.70;;;;;;6013574;29;20154;-72
2022/04/04 11:21:02;;;;;;;15.93;7.63;;;14.30;41.60;;;;;;6002258;29;20539;-72
2022/04/04 11:24:07;;;;;;;14.60;6.65;;;14.30;41.70;;;;;;6018315;29;20034;-71
2022/04/04 11:27:10;;;;;;;11.68;6.50;;;14.40;41.80;;;;;;6016284;29;20452;-71
2022/04/04 11:30:15;;;;;;;10.18;5.75;;;14.50;41.60;;;;;;6002239;29;20761;-70
2022/04/04 11:33:22;;;;;;;13.98;6.60;;;14.70;41.30;;;;;;6003193;29;20030;-72
2022/04/04 11:36:25;;;;;;;12.57;6.22;;;15.00;41.10;;;;;;6017526;29;20124;-72
2022/04/04 11:39:26;;;;;;;16.00;7.97;;;15.20;40.60;;;;;;6004391;29;20096;-71
2022/04/04 11:42:30;;;;;;;14.60;7.07;;;15.30;39.90;;;;;;6000852;29;20380;-72
2022/04/04 11:45:41;;;;;;;16.13;7.53;;;15.40;39.80;;;;;;6016635;29;20079;-73
2022/04/04 11:48:49;;;;;;;12.25;6.72;;;15.40;39.60;;;;;;6003488;29;20097;-72
2022/04/04 11:51:50;;;;;;;;;;;15.40;39.30;;;;;;6019567;29;20060;-70
2022/04/04 11:54:51;;;;;;;26.25;13.07;;;15.40;39.30;;;;;;5997377;29;19924;-70
2022/04/04 11:57:58;;;;;;;12.00;6.72;;;15.40;39.30;;;;;;6001218;29;20034;-71
2022/04/04 12:01:09;;;;;;;14.20;7.28;;;15.40;39.20;;;;;;5998851;29;20065;-72
2022/04/04 12:04:11;;;;;;;13.32;8.25;;;15.50;39.20;;;;;;6019497;29;20045;-71
2022/04/04 12:07:12;;;;;;;14.38;7.07;;;15.50;39.40;;;;;;6001034;29;20030;-71
2022/04/04 12:10:16;;;;;;;16.25;9.45;;;15.60;38.80;;;;;;6006042;29;20159;-72
2022/04/04 12:13:22;;;;;;;13.82;7.78;;;15.80;38.10;;;;;;6005999;29;20034;-70
2022/04/04 12:16:26;;;;;;;;;;;16.30;37.80;;;;;;5996855;29;20048;-70
2022/04/04 12:19:28;;;;;;;14.10;7.72;;;17.10;37.00;;;;;;6007326;29;20236;-71
2022/04/04 12:25:57;;;;;;;13.27;7.28;;;18.80;34.70;;;;;;6006560;29;20034;-71
2022/04/04 12:28:58;;;;;;;13.15;7.85;;;19.60;33.70;;;;;;6022707;29;20042;-71
2022/04/04 12:31:59;;;;;;;13.73;8.10;;;20.30;32.50;;;;;;6006554;29;20440;-72
2022/04/04 12:35:06;;;;;;;16.20;7.80;;;20.80;31.20;;;;;;6022183;29;20042;-72
2022/04/04 12:38:11;;;;;;;15.25;8.43;;;21.30;30.00;;;;;;6021036;29;20038;-72
2022/04/04 12:41:13;;;;;;;15.75;8.80;;;21.80;29.20;;;;;;6004503;29;20062;-74
2022/04/04 12:44:23;;;;;;;13.15;7.30;;;22.30;28.50;;;;;;6004912;29;20037;-72
2022/04/04 12:47:23;;;;;;;10.90;7.40;;;22.80;28.00;;;;;;5985158;29;20204;-72
2022/04/04 12:50:37;;;;;;;14.05;7.85;;;23.40;27.50;;;;;;6021460;29;20038;-71
2022/04/04 12:53:48;;;;;;;24.30;8.80;;;24.00;26.70;;;;;;6020450;29;20463;-72
2022/04/04 12:56:49;;;;;;;13.60;7.00;;;24.60;26.20;;;;;;6018167;29;20037;-72
2022/04/04 12:59:56;;;;;;;15.63;7.32;;;25.10;25.90;;;;;;6004328;29;20077;-72
2022/04/04 13:03:16;;;;;;;10.32;6.78;;;25.60;25.50;;;;;;6022158;29;20098;-73
2022/04/04 13:06:17;;;;;;;12.35;7.20;;;26.00;24.60;;;;;;6001991;29;20053;-72
2022/04/04 13:09:25;;;;;;;11.02;7.38;;;26.50;24.20;;;;;;6021115;29;20061;-72
2022/04/04 13:12:30;;;;;;;10.98;7.38;;;27.00;23.90;;;;;;6015946;29;20294;-72
2022/04/04 13:15:38;;;;;;;10.40;7.10;;;27.30;22.90;;;;;;6001689;29;20045;-72
2022/04/04 13:18:39;;;;;;;11.48;7.80;;;27.40;23.10;;;;;;6004008;29;20042;-72
2022/04/04 13:21:48;;;;;;;16.30;7.50;;;27.80;22.90;;;;;;6004627;29;20064;-72
2022/04/04 13:24:49;;;;;;;16.98;7.78;;;27.90;22.20;;;;;;6017546;29;20041;-72
2022/04/04 13:27:50;;;;;;;11.68;7.05;;;28.00;21.80;;;;;;6003363;29;20042;-72
2022/04/04 13:30:51;;;;;;;10.38;7.00;;;28.00;22.10;;;;;;6002660;29;20524;-71
2022/04/04 13:33:52;;;;;;;11.00;7.10;;;28.20;21.90;;;;;;6018420;29;20324;-72
2022/04/04 13:36:53;;;;;;;14.05;7.72;;;28.20;21.70;;;;;;6021095;29;20042;-72
2022/04/04 13:39:54;;;;;;;11.13;7.38;;;28.10;21.70;;;;;;5985850;29;20070;-72
2022/04/04 13:42:55;;;;;;;9.73;6.97;;;27.90;21.60;;;;;;6000781;29;20049;-71
2022/04/04 13:45:56;;;;;;;10.57;7.63;;;27.90;21.70;;;;;;6014067;29;20124;-71
2022/04/04 13:48:58;;;;;;;8.35;6.25;;;27.80;21.60;;;;;;6012280;29;20117;-72
2022/04/04 13:52:01;;;;;;;9.45;6.90;;;27.70;21.40;;;;;;6004362;29;20383;-72
2022/04/04 13:55:03;;;;;;;9.80;7.00;;;26.70;22.00;;;;;;6015609;29;20046;-72
2022/04/04 13:58:04;;;;;;;13.15;6.88;;;25.50;23.00;;;;;;6018435;29;20106;-71
2022/04/04 14:01:05;;;;;;;12.50;7.32;;;24.30;23.80;;;;;;5999421;29;20452;-72
2022/04/04 14:04:06;;;;;;;10.45;6.78;;;23.30;24.60;;;;;;6001226;29;20045;-71
2022/04/04 14:07:10;;;;;;;12.75;6.88;;;22.40;25.00;;;;;;6017286;29;20046;-71
2022/04/04 14:10:12;;;;;;;13.70;6.97;;;21.50;25.70;;;;;;6002426;29;20061;-71
2022/04/04 14:13:13;;;;;;;12.30;6.50;;;20.60;26.40;;;;;;5996268;29;20040;-71
2022/04/04 14:16:14;;;;;;;11.13;6.75;;;19.80;27.20;;;;;;6015988;29;20037;-73
2022/04/04 14:19:16;;;;;;;11.68;6.90;;;19.10;28.00;;;;;;6002525;29;20029;-72
2022/04/04 14:22:17;;;;;;;10.38;6.43;;;18.50;28.80;;;;;;6013446;29;20038;-72
2022/04/04 14:25:18;;;;;;;10.25;5.93;;;18.00;29.40;;;;;;5994231;29;20037;-72
2022/04/04 14:28:19;;;;;;;10.02;5.93;;;17.50;29.90;;;;;;5998565;29;20038;-72
2022/04/04 14:31:20;;;;;;;11.93;6.65;;;17.20;30.50;;;;;;6014772;29;20120;-72
2022/04/04 14:34:21;;;;;;;17.92;7.10;;;16.90;31.00;;;;;;6016480;29;20106;-72
2022/04/04 14:37:22;;;;;;;13.48;7.78;;;16.70;31.40;;;;;;5998651;29;20043;-71
2022/04/04 14:40:24;;;;;;;14.20;6.78;;;16.40;32.00;;;;;;5998628;29;20517;-72
2022/04/04 14:43:25;;;;;;;12.23;6.70;;;16.10;32.70;;;;;;6002835;29;20037;-71
2022/04/04 14:46:26;;;;;;;11.77;6.15;;;15.80;33.20;;;;;;5984790;29;20489;-72
2022/04/04 14:49:26;;;;;;;12.00;6.20;;;15.60;33.70;;;;;;5999912;29;20478;-72
2022/04/04 14:52:27;;;;;;;10.35;5.97;;;15.40;34.00;;;;;;6018248;29;20086;-71
2022/04/04 14:55:28;;;;;;;13.60;7.35;;;15.30;34.30;;;;;;6001777;29;20053;-72
2022/04/04 14:58:29;;;;;;;8.80;5.72;;;15.20;34.60;;;;;;5986782;29;20046;-71
2022/04/04 15:01:30;;;;;;;13.40;6.47;;;15.20;34.80;;;;;;6002782;29;20034;-70
2022/04/04 15:04:31;;;;;;;13.50;7.32;;;15.20;35.00;;;;;;5999351;29;20467;-70
2022/04/04 15:07:32;;;;;;;14.20;7.13;;;15.20;35.10;;;;;;6017042;29;20060;-71
2022/04/04 15:10:33;;;;;;;13.15;7.30;;;15.20;35.20;;;;;;6015351;29;20059;-71
2022/04/04 15:13:34;;;;;;;12.35;6.53;;;15.10;35.30;;;;;;5984112;29;20046;-71
2022/04/04 15:16:35;;;;;;;15.02;6.60;;;15.10;35.40;;;;;;6016198;29;20053;-72
2022/04/04 15:19:36;;;;;;;10.95;6.53;;;15.00;35.60;;;;;;6017648;29;20101;-71
2022/04/04 15:22:37;;;;;;;13.98;6.97;;;15.00;35.90;;;;;;5999350;29;20037;-71
2022/04/04 15:25:38;;;;;;;11.40;6.57;;;15.00;36.00;;;;;;6016911;29;20459;-71
2022/04/04 15:28:39;;;;;;;14.40;6.63;;;15.00;36.00;;;;;;5997366;29;20042;-71
2022/04/04 15:31:40;;;;;;;11.85;5.93;;;15.00;35.80;;;;;;5983391;29;20096;-72
2022/04/04 15:34:41;;;;;;;12.45;6.70;;;14.90;35.80;;;;;;6015150;29;20054;-71
2022/04/04 15:37:44;;;;;;;15.25;6.80;;;14.90;36.00;;;;;;6012596;29;20041;-72
2022/04/04 15:40:45;;;;;;;12.43;6.30;;;14.90;36.10;;;;;;6015019;29;20037;-71
2022/04/04 15:43:47;;;;;;;13.00;6.40;;;14.90;36.20;;;;;;6000321;29;20074;-73
2022/04/04 15:46:48;;;;;;;11.00;5.88;;;14.90;36.30;;;;;;5984433;29;20049;-71
2022/04/04 15:49:49;;;;;;;14.38;6.38;;;14.90;36.30;;;;;;5998250;29;20132;-71
2022/04/04 15:52:50;;;;;;;13.45;6.32;;;14.90;36.40;;;;;;6015455;29;20486;-71
2022/04/04 15:55:50;;;;;;;12.70;6.38;;;14.90;36.50;;;;;;6010972;29;20044;-71
2022/04/04 15:58:53;;;;;;;12.00;6.63;;;15.00;36.30;;;;;;5998088;29;20038;-71